Little Neck, New York
Current Conditions -  °F | °C
As of 8:51 PM on Thursday 18 Dec 2014 (Local Time) from KLGA Reporting Station
Few Clouds Few Clouds  
Wind Chill: 30°   Ceiling: Unl
Heat Index: 38°   Visibility: 10mi
Dew Point: 27°   Wind: 14mph
Humidity: 65%   Direction: 310°NW
Pressure: 29.96"   Gusts: NA
Location:  40.76°N, 73.74°W
Report Text: KLGA 190151Z 31012KT 10SM FEW031 03/M03 A2996 RMK AO2 SLP144 T00331028
Loading
Personal Weather Stations






























Interactive Weather Map New forecast layout! Learn more

10-Day Weather Forecast

Advertisements
Track Severe Weather on mobile